createdAt,value
2022-10-10T00:01:28.795Z,2.55
2022-10-10T00:03:55.888Z,2.55
2022-10-10T00:06:23.477Z,2.47
2022-10-10T00:08:50.925Z,2.70
2022-10-10T00:11:20.900Z,2.90
2022-10-10T00:13:49.363Z,3.05
2022-10-10T00:16:17.843Z,2.67
2022-10-10T00:18:45.367Z,3.08
2022-10-10T00:21:13.940Z,2.72
2022-10-10T00:23:42.046Z,3.17
2022-10-10T00:26:09.617Z,2.60
2022-10-10T00:28:39.053Z,2.90
2022-10-10T00:31:09.897Z,3.33
2022-10-10T00:33:37.852Z,2.70
2022-10-10T00:36:06.949Z,2.38
2022-10-10T00:38:34.105Z,2.85
2022-10-10T00:41:01.302Z,2.33
2022-10-10T00:43:30.030Z,2.55
2022-10-10T00:45:57.097Z,2.70
2022-10-10T00:48:32.757Z,2.53
2022-10-10T00:51:08.276Z,2.42
2022-10-10T00:53:43.506Z,2.70
2022-10-10T00:56:13.411Z,2.83
2022-10-10T00:58:44.033Z,2.50
2022-10-10T01:01:11.636Z,2.78
2022-10-10T01:03:38.614Z,2.67
2022-10-10T01:06:06.644Z,2.70
2022-10-10T01:08:33.880Z,2.70
2022-10-10T01:11:27.886Z,2.15
2022-10-10T01:14:21.882Z,2.58
2022-10-10T01:17:11.493Z,2.47
2022-10-10T01:20:26.366Z,2.33
2022-10-10T01:23:11.678Z,2.30
2022-10-10T01:26:19.000Z,2.70
2022-10-10T01:28:51.424Z,2.75
2022-10-10T01:31:22.795Z,2.85
2022-10-10T01:34:09.848Z,2.97
2022-10-10T01:37:08.908Z,2.40
2022-10-10T01:39:59.405Z,1.73
2022-10-10T01:42:43.821Z,0.70
2022-10-10T01:45:11.357Z,1.00
2022-10-10T01:47:39.199Z,0.60
2022-10-10T01:50:12.798Z,0.63
2022-10-10T01:53:01.639Z,1.10
2022-10-10T01:56:08.200Z,1.25
2022-10-10T01:59:16.852Z,1.30
2022-10-10T02:01:51.618Z,1.00
2022-10-10T02:04:57.082Z,1.92
2022-10-10T02:08:11.978Z,1.50
2022-10-10T02:10:49.464Z,1.88
2022-10-10T02:13:18.880Z,1.77
2022-10-10T02:15:52.124Z,1.80
2022-10-10T02:18:23.545Z,1.58
2022-10-10T02:20:51.920Z,1.85
2022-10-10T02:23:21.923Z,2.53
2022-10-10T02:25:54.088Z,1.95
2022-10-10T02:28:38.877Z,2.40
2022-10-10T02:31:17.108Z,2.00
2022-10-10T02:34:20.212Z,1.80
2022-10-10T02:36:53.262Z,2.28
2022-10-10T02:39:27.517Z,1.92
2022-10-10T02:41:54.623Z,2.53
2022-10-10T02:44:22.693Z,2.35
2022-10-10T02:46:49.805Z,1.77
2022-10-10T02:49:28.508Z,2.00
2022-10-10T02:51:55.372Z,2.05
2022-10-10T02:54:22.301Z,2.15
2022-10-10T02:56:49.309Z,2.20
2022-10-10T02:59:16.147Z,2.13
2022-10-10T03:01:43.732Z,2.08
2022-10-10T03:04:10.946Z,2.33
2022-10-10T03:06:37.723Z,2.00
2022-10-10T03:09:05.980Z,1.90
2022-10-10T03:11:33.011Z,2.03
2022-10-10T03:14:00.165Z,2.15
2022-10-10T03:16:27.056Z,1.52
2022-10-10T03:18:53.866Z,2.25
2022-10-10T03:21:20.843Z,1.52
2022-10-10T03:23:47.629Z,2.47
2022-10-10T03:26:14.546Z,1.77
2022-10-10T03:28:41.860Z,1.83
2022-10-10T03:31:08.828Z,2.38
2022-10-10T03:33:35.820Z,1.90
2022-10-10T03:36:02.784Z,1.88
2022-10-10T03:38:29.560Z,1.50
2022-10-10T03:40:56.697Z,2.50
2022-10-10T03:43:23.458Z,1.95
2022-10-10T03:45:50.802Z,2.42
2022-10-10T03:48:18.115Z,1.63
2022-10-10T03:50:44.919Z,1.90
2022-10-10T03:53:11.797Z,1.80
2022-10-10T03:55:43.146Z,2.47
2022-10-10T03:58:11.208Z,2.15
2022-10-10T04:00:38.786Z,1.70
2022-10-10T04:03:06.752Z,1.90
2022-10-10T04:05:35.978Z,2.10
2022-10-10T04:08:04.309Z,2.42
2022-10-10T04:10:31.872Z,2.50
2022-10-10T04:12:59.017Z,2.40
2022-10-10T04:15:26.099Z,2.60
2022-10-10T04:17:53.073Z,1.90
2022-10-10T04:20:20.060Z,2.53
2022-10-10T04:22:46.836Z,2.60
2022-10-10T04:25:13.756Z,3.03
2022-10-10T04:27:40.649Z,2.33
2022-10-10T04:30:08.247Z,2.42
2022-10-10T04:32:35.037Z,2.83
2022-10-10T04:35:01.989Z,3.08
2022-10-10T04:37:28.808Z,2.42
2022-10-10T04:39:56.112Z,3.05
2022-10-10T04:42:23.404Z,2.95
2022-10-10T04:44:50.379Z,2.50
2022-10-10T04:47:17.544Z,2.55
2022-10-10T04:49:44.650Z,3.00
2022-10-10T04:52:12.068Z,2.92
2022-10-10T04:54:38.893Z,2.85
2022-10-10T04:57:05.929Z,2.53
2022-10-10T04:59:32.856Z,2.78
2022-10-10T05:02:01.957Z,2.85
2022-10-10T05:04:29.277Z,2.97
2022-10-10T05:06:56.073Z,2.10
2022-10-10T05:09:27.263Z,2.53
2022-10-10T05:11:54.705Z,2.17
2022-10-10T05:14:21.505Z,2.50
2022-10-10T05:16:48.281Z,2.53
2022-10-10T05:19:15.389Z,2.90
2022-10-10T05:21:42.191Z,2.03
2022-10-10T05:24:08.997Z,1.85
2022-10-10T05:26:40.892Z,2.88
2022-10-10T05:29:09.924Z,2.42
2022-10-10T05:31:36.760Z,2.20
2022-10-10T05:34:03.630Z,2.33
2022-10-10T05:36:30.492Z,2.58
2022-10-10T05:38:57.895Z,2.00
2022-10-10T05:41:24.877Z,2.40
2022-10-10T05:43:51.684Z,2.10
2022-10-10T05:46:20.452Z,2.58
2022-10-10T05:48:47.224Z,2.63
2022-10-10T05:51:14.156Z,2.88
2022-10-10T05:53:41.101Z,1.95
2022-10-10T05:56:08.123Z,2.00
2022-10-10T05:58:35.221Z,2.42
2022-10-10T06:01:05.401Z,2.20
2022-10-10T06:03:33.504Z,2.00
2022-10-10T06:06:01.070Z,1.98
2022-10-10T06:08:28.670Z,2.20
2022-10-10T06:11:08.234Z,2.30
2022-10-10T06:13:35.523Z,2.10
2022-10-10T06:16:02.398Z,2.55
2022-10-10T06:18:29.891Z,2.17
2022-10-10T06:21:03.551Z,2.35
2022-10-10T06:23:30.400Z,2.05
2022-10-10T06:25:57.240Z,3.03
2022-10-10T06:28:24.165Z,2.72
2022-10-10T06:30:51.719Z,2.40
2022-10-10T06:33:19.654Z,2.85
2022-10-10T06:35:49.162Z,2.38
2022-10-10T06:38:17.165Z,2.60
2022-10-10T06:40:44.400Z,2.05
2022-10-10T06:43:13.594Z,2.65
2022-10-10T06:45:45.324Z,2.28
2022-10-10T06:48:14.544Z,2.75
2022-10-10T06:50:41.684Z,2.63
2022-10-10T06:53:08.673Z,3.10
2022-10-10T06:55:35.525Z,2.13
2022-10-10T06:58:02.367Z,2.58
2022-10-10T07:00:29.220Z,2.58
2022-10-10T07:02:55.999Z,2.25
2022-10-10T07:05:22.799Z,2.42
2022-10-10T07:07:52.878Z,2.60
2022-10-10T07:10:19.676Z,2.45
2022-10-10T07:12:46.484Z,1.92
2022-10-10T07:15:13.718Z,2.70
2022-10-10T07:17:40.697Z,2.67
2022-10-10T07:20:08.345Z,2.28
2022-10-10T07:22:35.390Z,2.03
2022-10-10T07:25:02.182Z,2.47
2022-10-10T07:27:29.173Z,2.58
2022-10-10T07:29:56.094Z,3.70
2022-10-10T07:32:22.887Z,2.60
2022-10-10T07:34:51.110Z,2.67
2022-10-10T07:37:18.075Z,2.42
2022-10-10T07:39:45.026Z,3.03
2022-10-10T07:42:12.003Z,2.58
2022-10-10T07:44:38.784Z,2.45
2022-10-10T07:47:05.804Z,3.53
2022-10-10T07:49:32.812Z,2.60
2022-10-10T07:52:01.604Z,3.40
2022-10-10T07:54:30.105Z,3.40
2022-10-10T07:56:58.092Z,2.55
2022-10-10T07:59:25.601Z,3.13
2022-10-10T08:01:52.473Z,3.38
2022-10-10T08:04:19.506Z,2.95
2022-10-10T08:06:46.427Z,2.60
2022-10-10T08:09:13.385Z,2.72
2022-10-10T08:11:40.200Z,3.15
2022-10-10T08:14:07.058Z,2.78
2022-10-10T08:16:36.951Z,2.72
2022-10-10T08:19:04.705Z,2.50
2022-10-10T08:21:31.757Z,3.05
2022-10-10T08:23:58.549Z,2.70
2022-10-10T08:26:25.548Z,2.70
2022-10-10T08:28:52.465Z,3.00
2022-10-10T08:31:22.092Z,2.85
2022-10-10T08:33:51.006Z,2.60
2022-10-10T08:36:22.787Z,2.78
2022-10-10T08:38:52.742Z,3.03
2022-10-10T08:41:34.596Z,2.47
2022-10-10T08:44:13.173Z,2.92
2022-10-10T08:47:10.245Z,2.63
2022-10-10T08:49:49.314Z,2.60
2022-10-10T08:52:39.057Z,2.88
2022-10-10T08:55:33.782Z,2.83
2022-10-10T08:58:12.630Z,2.70
2022-10-10T09:00:59.812Z,2.63
2022-10-10T09:03:57.920Z,2.30
2022-10-10T09:07:04.867Z,2.65
2022-10-10T09:09:58.323Z,2.88
2022-10-10T09:12:42.061Z,2.97
2022-10-10T09:15:11.841Z,2.83
2022-10-10T09:18:23.588Z,2.80
2022-10-10T09:21:17.503Z,2.80
2022-10-10T09:24:17.484Z,3.13
2022-10-10T09:26:57.484Z,2.70
2022-10-10T09:29:51.153Z,2.85
2022-10-10T09:33:17.655Z,3.40
2022-10-10T09:35:46.726Z,3.05
2022-10-10T09:38:33.593Z,3.38
2022-10-10T09:41:08.287Z,2.70
2022-10-10T09:43:35.852Z,2.75
2022-10-10T09:46:02.872Z,3.00
2022-10-10T09:48:36.813Z,3.03
2022-10-10T09:51:08.495Z,3.42
2022-10-10T09:53:35.299Z,2.97
2022-10-10T09:56:05.041Z,3.20
2022-10-10T09:58:46.992Z,3.08
2022-10-10T10:01:22.553Z,3.05
2022-10-10T10:04:34.264Z,2.67
2022-10-10T10:07:20.791Z,3.17
2022-10-10T10:09:54.546Z,3.05
2022-10-10T10:12:32.155Z,3.30
2022-10-10T10:15:05.126Z,3.58
2022-10-10T10:17:32.058Z,2.38
2022-10-10T10:19:58.977Z,3.30
2022-10-10T10:22:36.100Z,2.67
2022-10-10T10:25:39.108Z,3.05
2022-10-10T10:28:12.008Z,3.25
2022-10-10T10:30:40.249Z,3.15
2022-10-10T10:33:18.801Z,3.25
2022-10-10T10:35:54.616Z,2.92
2022-10-10T10:38:33.160Z,2.60
2022-10-10T10:41:35.634Z,2.78
2022-10-10T10:44:41.155Z,3.35
2022-10-10T10:47:29.425Z,2.00
2022-10-10T10:50:20.884Z,2.65
2022-10-10T10:53:11.090Z,2.33
2022-10-10T10:55:48.750Z,2.97
2022-10-10T10:59:38.476Z,2.40
2022-10-10T11:01:58.719Z,2.65
2022-10-10T11:05:19.929Z,2.28
2022-10-10T11:08:13.207Z,2.10
2022-10-10T11:11:09.069Z,2.33
2022-10-10T11:16:48.905Z,2.30
2022-10-10T11:19:27.213Z,2.40
2022-10-10T11:22:00.339Z,2.60
2022-10-10T11:25:02.739Z,2.55
2022-10-10T11:28:26.747Z,2.80
2022-10-10T11:31:03.599Z,2.55
2022-10-10T11:33:43.004Z,2.63
2022-10-10T11:36:19.268Z,2.50
2022-10-10T11:38:51.626Z,2.20
2022-10-10T11:41:26.150Z,2.88
2022-10-10T11:44:19.083Z,2.20
2022-10-10T11:47:00.690Z,2.63
2022-10-10T11:49:52.609Z,2.70
2022-10-10T11:53:00.382Z,2.72
2022-10-10T11:55:32.172Z,2.38
2022-10-10T11:58:04.974Z,2.47
2022-10-10T12:00:42.767Z,2.63
2022-10-10T12:03:10.144Z,2.38
2022-10-10T12:05:42.828Z,2.30
2022-10-10T12:08:19.014Z,1.90
2022-10-10T12:10:58.886Z,2.47
2022-10-10T12:13:32.779Z,2.30
2022-10-10T12:16:07.654Z,2.22
2022-10-10T12:19:16.149Z,2.58
2022-10-10T12:21:59.685Z,2.55
2022-10-10T12:24:30.762Z,2.60
2022-10-10T12:26:57.507Z,2.83
2022-10-10T12:29:51.148Z,2.20
2022-10-10T12:32:24.752Z,2.60
2022-10-10T12:34:51.506Z,2.60
2022-10-10T12:37:32.795Z,2.45
2022-10-10T12:40:21.729Z,2.80
2022-10-10T12:42:48.432Z,2.35
2022-10-10T12:45:31.237Z,2.50
2022-10-10T12:48:05.471Z,3.17
2022-10-10T12:50:40.276Z,2.60
2022-10-10T12:53:18.658Z,2.63
2022-10-10T12:55:49.159Z,2.50
2022-10-10T12:58:27.437Z,2.65
2022-10-10T13:01:19.815Z,2.40
2022-10-10T13:03:50.250Z,2.70
2022-10-10T13:06:39.518Z,2.13
2022-10-10T13:09:16.040Z,2.60
2022-10-10T13:11:55.024Z,2.40
2022-10-10T13:14:23.344Z,2.35
2022-10-10T13:16:50.163Z,2.92
2022-10-10T13:19:26.239Z,1.92
2022-10-10T13:21:55.911Z,2.50
2022-10-10T13:24:30.635Z,2.65
2022-10-10T13:26:57.931Z,2.67
2022-10-10T13:29:31.516Z,2.17
2022-10-10T13:32:06.291Z,2.70
2022-10-10T13:34:37.246Z,2.35
2022-10-10T13:37:05.936Z,2.17
2022-10-10T13:39:38.108Z,2.05
2022-10-10T13:42:08.779Z,2.53
2022-10-10T13:44:51.655Z,2.97
2022-10-10T13:47:46.529Z,2.42
2022-10-10T13:50:35.321Z,2.75
2022-10-10T13:53:26.957Z,2.65
2022-10-10T13:56:31.028Z,2.10
2022-10-10T13:59:11.021Z,2.60
2022-10-10T14:01:45.171Z,2.92
2022-10-10T14:04:27.253Z,3.20
2022-10-10T14:07:06.916Z,2.67
2022-10-10T14:09:41.273Z,2.90
2022-10-10T14:12:18.900Z,2.90
2022-10-10T14:14:51.631Z,2.50
2022-10-10T14:17:18.811Z,2.75
2022-10-10T14:19:47.837Z,2.88
2022-10-10T14:22:14.603Z,2.75
2022-10-10T14:24:41.400Z,2.85
2022-10-10T14:27:24.908Z,3.03
2022-10-10T14:29:54.602Z,2.80
2022-10-10T14:32:22.207Z,2.97
2022-10-10T14:34:49.119Z,3.20
2022-10-10T14:37:25.397Z,3.15
2022-10-10T14:39:52.899Z,2.90
2022-10-10T14:42:21.651Z,3.45
2022-10-10T14:44:48.491Z,3.10
2022-10-10T14:47:19.379Z,3.00
2022-10-10T14:49:46.720Z,3.83
2022-10-10T14:52:13.777Z,3.03
2022-10-10T14:54:40.979Z,3.75
2022-10-10T14:57:10.328Z,3.10
2022-10-10T14:59:46.156Z,2.80
2022-10-10T15:02:19.786Z,3.22
2022-10-10T15:04:46.672Z,2.95
2022-10-10T15:07:15.023Z,2.97
2022-10-10T15:12:41.831Z,2.92
2022-10-10T15:15:10.973Z,3.15
2022-10-10T15:17:37.836Z,3.38
2022-10-10T15:20:08.419Z,3.30
2022-10-10T15:22:35.962Z,3.95
2022-10-10T15:25:03.323Z,3.60
2022-10-10T15:27:30.156Z,3.30
2022-10-10T15:29:57.165Z,2.85
2022-10-10T15:32:24.229Z,3.10
2022-10-10T15:34:52.411Z,3.35
2022-10-10T15:37:19.608Z,3.28
2022-10-10T15:39:46.549Z,3.08
2022-10-10T15:42:18.516Z,3.28
2022-10-10T15:44:49.934Z,3.50
2022-10-10T15:47:18.906Z,2.88
2022-10-10T15:49:45.833Z,3.85
2022-10-10T15:52:13.342Z,3.30
2022-10-10T15:54:40.330Z,3.42
2022-10-10T15:57:07.162Z,2.92
2022-10-10T15:59:35.745Z,3.40
2022-10-10T16:02:04.696Z,3.72
2022-10-10T16:04:31.534Z,3.92
2022-10-10T16:09:45.171Z,3.67
2022-10-10T16:12:12.067Z,3.78
2022-10-10T16:14:39.201Z,3.30
2022-10-10T16:17:05.984Z,3.80
2022-10-10T16:19:32.850Z,4.00
2022-10-10T16:21:59.698Z,3.40
2022-10-10T16:24:26.472Z,3.60
2022-10-10T16:26:53.473Z,4.13
2022-10-10T16:29:20.860Z,4.78
2022-10-10T16:31:47.780Z,3.38
2022-10-10T16:34:16.161Z,3.95
2022-10-10T16:36:43.129Z,4.13
2022-10-10T16:39:10.251Z,3.83
2022-10-10T16:41:52.672Z,4.47
2022-10-10T16:44:19.511Z,5.97
2022-10-10T16:46:46.944Z,5.22
2022-10-10T16:49:16.865Z,3.45
2022-10-10T16:51:43.855Z,3.75
2022-10-10T16:54:10.722Z,3.00
2022-10-10T16:56:37.755Z,4.30
2022-10-10T16:59:04.734Z,4.22
2022-10-10T17:01:31.861Z,4.43
2022-10-10T17:04:00.698Z,3.47
2022-10-10T17:06:34.259Z,3.78
2022-10-10T17:09:02.956Z,4.72
2022-10-10T17:11:30.221Z,7.25
2022-10-10T17:13:57.157Z,4.93
2022-10-10T17:19:14.530Z,5.28
2022-10-10T17:21:41.349Z,3.78
2022-10-10T17:24:08.578Z,5.78
2022-10-10T17:26:35.509Z,3.55
2022-10-10T17:29:02.317Z,3.60
2022-10-10T17:31:29.529Z,4.07
2022-10-10T17:33:57.637Z,4.13
2022-10-10T17:36:27.805Z,3.72
2022-10-10T17:39:01.599Z,5.30
2022-10-10T17:41:29.954Z,3.80
2022-10-10T17:43:57.426Z,6.30
2022-10-10T17:46:34.702Z,5.57
2022-10-10T17:49:05.267Z,4.82
2022-10-10T17:51:32.115Z,3.38
2022-10-10T17:54:00.604Z,3.83
2022-10-10T17:56:27.845Z,4.45
2022-10-10T17:58:54.992Z,3.83
2022-10-10T18:01:22.652Z,4.10
2022-10-10T18:03:49.889Z,5.43
2022-10-10T18:06:21.720Z,6.30
2022-10-10T18:08:51.430Z,6.30
2022-10-10T18:11:25.598Z,7.50
2022-10-10T18:13:53.646Z,6.67
2022-10-10T18:16:23.183Z,5.50
2022-10-10T18:18:52.118Z,5.32
2022-10-10T18:21:21.743Z,5.43
2022-10-10T18:23:49.719Z,5.60
2022-10-10T18:26:23.749Z,5.38
2022-10-10T18:28:52.688Z,5.43
2022-10-10T18:31:26.410Z,4.95
2022-10-10T18:33:54.181Z,5.18
2022-10-10T18:36:25.940Z,4.70
2022-10-10T18:38:53.194Z,7.60
2022-10-10T18:41:23.525Z,6.82
2022-10-10T18:43:51.839Z,5.40
2022-10-10T18:46:24.020Z,6.65
2022-10-10T18:48:54.002Z,5.80
2022-10-10T18:51:26.381Z,6.43
2022-10-10T18:54:05.886Z,7.15
2022-10-10T18:56:34.054Z,7.93
2022-10-10T18:59:06.624Z,7.50
2022-10-10T19:01:37.052Z,8.25
2022-10-10T19:04:07.393Z,7.70
2022-10-10T19:06:36.356Z,8.57
2022-10-10T19:09:06.373Z,9.75
2022-10-10T19:11:39.322Z,10.93
2022-10-10T19:14:10.418Z,10.30
2022-10-10T19:16:42.257Z,8.13
2022-10-10T19:19:13.028Z,6.30
2022-10-10T19:21:40.420Z,5.22
2022-10-10T19:24:09.008Z,5.70
2022-10-10T19:26:37.226Z,6.93
2022-10-10T19:29:07.521Z,6.40
2022-10-10T19:31:36.559Z,6.82
2022-10-10T19:34:04.080Z,5.88
2022-10-10T19:36:31.001Z,5.60
2022-10-10T19:39:00.182Z,5.60
2022-10-10T19:41:27.390Z,5.13
2022-10-10T19:43:54.254Z,4.88
2022-10-10T19:46:23.333Z,4.28
2022-10-10T19:48:51.918Z,3.55
2022-10-10T19:51:19.619Z,4.40
2022-10-10T19:53:47.309Z,5.60
2022-10-10T19:56:26.613Z,4.78
2022-10-10T19:58:59.749Z,5.55
2022-10-10T20:01:29.985Z,4.72
2022-10-10T20:03:58.095Z,5.25
2022-10-10T20:06:25.456Z,5.65
2022-10-10T20:08:52.285Z,5.15
2022-10-10T20:11:20.466Z,4.07
2022-10-10T20:13:49.584Z,5.53
2022-10-10T20:16:16.685Z,7.70
2022-10-10T20:18:43.937Z,6.30
2022-10-10T20:21:23.499Z,5.40
2022-10-10T20:23:51.072Z,5.40
2022-10-10T20:26:23.468Z,4.43
2022-10-10T20:28:51.931Z,5.28
2022-10-10T20:31:29.237Z,5.68
2022-10-10T20:33:58.976Z,6.53
2022-10-10T20:36:26.258Z,5.38
2022-10-10T20:39:00.925Z,6.80
2022-10-10T20:41:32.081Z,6.35
2022-10-10T20:44:03.189Z,6.05
2022-10-10T20:46:35.618Z,6.28
2022-10-10T20:49:06.424Z,7.60
2022-10-10T20:51:33.313Z,6.13
2022-10-10T20:54:02.697Z,6.95
2022-10-10T20:56:31.607Z,6.57
2022-10-10T20:58:59.917Z,6.47
2022-10-10T21:01:29.415Z,7.18
2022-10-10T21:03:56.355Z,5.65
2022-10-10T21:06:29.025Z,6.40
2022-10-10T21:08:56.861Z,6.05
2022-10-10T21:11:24.359Z,5.65
2022-10-10T21:13:57.480Z,5.57
2022-10-10T21:16:27.978Z,5.97
2022-10-10T21:18:57.909Z,6.28
2022-10-10T21:21:28.394Z,6.55
2022-10-10T21:23:56.743Z,6.78
2022-10-10T21:26:30.009Z,7.30
2022-10-10T21:28:57.615Z,12.05
2022-10-10T21:31:28.324Z,15.07
2022-10-10T21:33:55.971Z,15.10
2022-10-10T21:36:25.355Z,14.73
2022-10-10T21:38:53.623Z,12.43
2022-10-10T21:41:21.725Z,11.15
2022-10-10T21:43:54.864Z,10.05
2022-10-10T21:46:29.794Z,9.20
2022-10-10T21:49:00.501Z,9.85
2022-10-10T21:51:27.401Z,11.65
2022-10-10T21:53:58.848Z,10.70
2022-10-10T21:56:26.588Z,9.50
2022-10-10T21:59:00.160Z,7.22
2022-10-10T22:01:28.130Z,7.13
2022-10-10T22:03:56.516Z,6.20
2022-10-10T22:06:25.195Z,33.58
2022-10-10T22:08:55.042Z,96.07
2022-10-10T22:11:26.153Z,86.10
2022-10-10T22:13:53.004Z,55.30
2022-10-10T22:16:20.856Z,46.45
2022-10-10T22:18:47.880Z,29.67
2022-10-10T22:21:17.268Z,19.05
2022-10-10T22:23:45.026Z,8.88
2022-10-10T22:26:15.190Z,9.15
2022-10-10T22:28:42.199Z,6.65
2022-10-10T22:31:13.069Z,6.63
2022-10-10T22:33:40.630Z,5.15
2022-10-10T22:36:09.018Z,5.25
2022-10-10T22:38:43.919Z,5.10
2022-10-10T22:41:12.491Z,4.63
2022-10-10T22:43:40.101Z,4.25
2022-10-10T22:46:08.195Z,4.43
2022-10-10T22:48:36.001Z,4.22
2022-10-10T22:51:16.608Z,3.60
2022-10-10T22:53:45.846Z,4.53
2022-10-10T22:56:19.436Z,3.67
2022-10-10T22:58:48.172Z,3.78
2022-10-10T23:01:18.787Z,4.30
2022-10-10T23:03:46.580Z,4.50
2022-10-10T23:06:14.030Z,4.70
2022-10-10T23:08:41.023Z,4.78
2022-10-10T23:11:08.300Z,5.57
2022-10-10T23:13:35.113Z,4.45
2022-10-10T23:16:02.407Z,3.90
2022-10-10T23:18:30.603Z,5.28
2022-10-10T23:20:57.404Z,4.32
2022-10-10T23:23:25.287Z,4.38
2022-10-10T23:25:52.320Z,4.68
2022-10-10T23:28:19.528Z,4.53
2022-10-10T23:30:48.407Z,4.95
2022-10-10T23:33:17.153Z,4.32
2022-10-10T23:35:43.988Z,4.05
2022-10-10T23:38:10.959Z,4.70
2022-10-10T23:40:37.780Z,4.93
2022-10-10T23:43:04.731Z,4.10
2022-10-10T23:45:31.913Z,4.07
2022-10-10T23:47:58.681Z,4.20
2022-10-10T23:50:25.563Z,4.55
2022-10-10T23:52:52.816Z,3.55
2022-10-10T23:55:19.617Z,3.95
2022-10-10T23:57:46.392Z,4.63
